createdAt,value
2018-05-27T00:01:18.784Z,82.80
2018-05-27T00:06:12.092Z,82.80
2018-05-27T00:11:06.162Z,83.90
2018-05-27T00:15:59.509Z,83.80
2018-05-27T00:20:52.826Z,84.60
2018-05-27T00:25:46.151Z,85.00
2018-05-27T00:30:39.433Z,85.40
2018-05-27T00:35:32.763Z,84.30
2018-05-27T00:40:26.837Z,84.90
2018-05-27T00:45:20.138Z,84.90
2018-05-27T00:50:14.223Z,84.90
2018-05-27T00:55:07.525Z,84.80
2018-05-27T01:00:00.851Z,84.30
2018-05-27T01:04:54.169Z,85.30
2018-05-27T01:09:48.238Z,86.30
2018-05-27T01:14:41.552Z,86.20
2018-05-27T01:19:34.867Z,86.20
2018-05-27T01:24:28.166Z,87.00
2018-05-27T01:29:21.460Z,87.20
2018-05-27T01:34:14.785Z,87.20
2018-05-27T01:39:08.103Z,87.00
2018-05-27T01:44:01.407Z,86.60
2018-05-27T01:48:54.717Z,87.00
2018-05-27T01:53:48.046Z,87.70
2018-05-27T01:58:41.388Z,88.20
2018-05-27T02:03:34.677Z,89.10
2018-05-27T02:08:27.996Z,89.30
2018-05-27T02:13:21.308Z,88.60
2018-05-27T02:18:14.612Z,88.80
2018-05-27T02:23:07.919Z,89.30
2018-05-27T02:28:02.002Z,89.30
2018-05-27T02:32:55.317Z,89.20
2018-05-27T02:37:49.391Z,90.00
2018-05-27T02:42:43.805Z,89.80
2018-05-27T02:47:37.113Z,89.80
2018-05-27T02:52:30.612Z,89.10
2018-05-27T02:57:23.923Z,89.50
2018-05-27T03:02:17.990Z,90.20
2018-05-27T03:07:11.324Z,90.20
2018-05-27T03:12:04.676Z,90.40
2018-05-27T03:16:57.981Z,90.00
2018-05-27T03:21:51.819Z,89.50
2018-05-27T03:26:45.169Z,89.40
2018-05-27T03:31:38.558Z,90.30
2018-05-27T03:36:31.968Z,90.80
2018-05-27T03:41:25.303Z,90.80
2018-05-27T03:46:19.371Z,91.40
2018-05-27T03:51:12.673Z,91.40
2018-05-27T03:56:06.756Z,91.60
2018-05-27T04:01:00.051Z,91.50
2018-05-27T04:06:11.054Z,91.30
2018-05-27T04:11:04.362Z,91.40
2018-05-27T04:15:57.672Z,90.90
2018-05-27T04:20:50.973Z,90.90
2018-05-27T04:25:44.276Z,91.30
2018-05-27T04:30:37.584Z,91.60
2018-05-27T04:35:30.888Z,91.60
2018-05-27T04:40:24.195Z,91.70
2018-05-27T04:45:17.499Z,91.80
2018-05-27T04:50:10.804Z,91.60
2018-05-27T04:55:04.204Z,91.60
2018-05-27T04:59:57.518Z,91.90
2018-05-27T05:04:50.810Z,91.90
2018-05-27T05:09:44.120Z,91.90
2018-05-27T05:14:37.444Z,91.70
2018-05-27T05:19:30.748Z,91.30
2018-05-27T05:24:24.834Z,90.60
2018-05-27T05:29:18.138Z,90.60
2018-05-27T05:34:11.444Z,90.60
2018-05-27T05:39:05.365Z,90.50
2018-05-27T05:43:58.660Z,90.80
2018-05-27T05:48:51.923Z,89.60
2018-05-27T05:53:45.256Z,90.00
2018-05-27T05:58:38.527Z,90.00
2018-05-27T06:03:31.830Z,88.40
2018-05-27T06:08:25.151Z,87.20
2018-05-27T06:13:18.542Z,87.20
2018-05-27T06:18:12.603Z,85.60
2018-05-27T06:23:05.923Z,85.50
2018-05-27T06:27:59.296Z,86.20
2018-05-27T06:32:52.903Z,85.70
2018-05-27T06:37:46.203Z,84.10
2018-05-27T06:42:39.593Z,84.20
2018-05-27T06:47:32.942Z,82.90
2018-05-27T06:52:26.312Z,84.60
2018-05-27T06:57:19.620Z,83.90
2018-05-27T07:02:12.991Z,84.20
2018-05-27T07:07:06.294Z,82.50
2018-05-27T07:11:59.596Z,82.10
2018-05-27T07:16:58.146Z,84.00
2018-05-27T07:21:51.479Z,84.00
2018-05-27T07:26:46.643Z,83.10
2018-05-27T07:31:39.975Z,80.60
2018-05-27T07:36:34.051Z,80.30
2018-05-27T07:41:27.355Z,80.20
2018-05-27T07:46:20.681Z,80.80
2018-05-27T07:51:14.002Z,80.90
2018-05-27T07:56:08.116Z,79.80
2018-05-27T08:01:01.449Z,79.90
2018-05-27T08:05:54.774Z,80.40
2018-05-27T08:10:48.112Z,79.00
2018-05-27T08:15:42.175Z,75.40
2018-05-27T08:20:35.504Z,75.30
2018-05-27T08:25:29.607Z,76.20
2018-05-27T08:30:22.966Z,76.20
2018-05-27T08:35:16.296Z,75.70
2018-05-27T08:40:09.642Z,74.70
2018-05-27T08:45:02.974Z,75.40
2018-05-27T08:49:56.302Z,72.70
2018-05-27T08:54:49.609Z,70.80
2018-05-27T08:59:42.919Z,69.20
2018-05-27T09:04:36.254Z,71.20
2018-05-27T09:09:29.629Z,67.20
2018-05-27T09:14:23.891Z,63.90
2018-05-27T09:19:17.249Z,63.50
2018-05-27T09:24:10.579Z,63.10
2018-05-27T09:29:03.908Z,61.30
2018-05-27T09:33:57.231Z,61.90
2018-05-27T09:38:50.567Z,62.40
2018-05-27T09:43:51.646Z,63.10
2018-05-27T09:53:49.728Z,62.80
2018-05-27T09:58:43.048Z,60.40
2018-05-27T10:03:36.351Z,59.40
2018-05-27T10:08:29.671Z,59.30
2018-05-27T10:13:22.950Z,59.60
2018-05-27T10:18:16.279Z,57.80
2018-05-27T10:23:09.842Z,57.30
2018-05-27T10:28:03.162Z,57.00
2018-05-27T10:32:56.434Z,57.50
2018-05-27T10:37:49.764Z,55.80
2018-05-27T10:42:43.899Z,54.40
2018-05-27T10:47:37.199Z,54.30
2018-05-27T10:52:30.591Z,53.90
2018-05-27T10:57:23.919Z,54.80
2018-05-27T11:02:17.231Z,53.30
2018-05-27T11:07:50.446Z,57.90
2018-05-27T11:12:44.627Z,57.70
2018-05-27T11:17:37.965Z,57.60
2018-05-27T11:22:32.069Z,57.50
2018-05-27T11:27:25.433Z,57.50
2018-05-27T11:32:18.719Z,55.20
2018-05-27T11:37:12.055Z,51.90
2018-05-27T11:42:05.386Z,51.20
2018-05-27T11:46:58.691Z,52.70
2018-05-27T11:51:52.002Z,51.10
2018-05-27T11:56:45.349Z,49.80
2018-05-27T12:01:39.494Z,48.70
2018-05-27T12:06:32.794Z,48.70
2018-05-27T12:11:26.101Z,47.40
2018-05-27T12:16:19.503Z,49.40
2018-05-27T12:21:12.847Z,49.90
2018-05-27T12:26:06.195Z,50.60
2018-05-27T12:30:59.501Z,51.40
2018-05-27T12:35:52.825Z,51.60
2018-05-27T12:40:46.947Z,52.00
2018-05-27T12:45:40.403Z,51.90
2018-05-27T12:50:34.523Z,52.40
2018-05-27T12:55:27.885Z,52.40
2018-05-27T13:00:21.974Z,54.60
2018-05-27T13:05:15.390Z,54.60
2018-05-27T13:10:08.723Z,57.60
2018-05-27T13:15:02.162Z,59.00
2018-05-27T13:19:55.478Z,54.10
2018-05-27T13:24:48.829Z,52.30
2018-05-27T13:29:42.170Z,52.50
2018-05-27T13:34:35.519Z,50.30
2018-05-27T13:39:28.819Z,52.30
2018-05-27T13:44:22.161Z,50.00
2018-05-27T13:49:16.287Z,49.20
2018-05-27T13:54:09.564Z,49.10
2018-05-27T13:59:02.902Z,49.60
2018-05-27T14:03:56.200Z,50.50
2018-05-27T14:08:49.522Z,49.70
2018-05-27T14:13:42.870Z,52.10
2018-05-27T14:18:36.964Z,50.90
2018-05-27T14:23:30.298Z,50.80
2018-05-27T14:28:23.632Z,51.40
2018-05-27T14:33:17.761Z,52.40
2018-05-27T14:38:11.079Z,52.40
2018-05-27T14:43:04.441Z,52.10
2018-05-27T14:47:57.762Z,53.50
2018-05-27T14:52:51.196Z,53.70
2018-05-27T14:57:45.271Z,53.50
2018-05-27T15:02:38.634Z,52.00
2018-05-27T15:07:32.009Z,55.70
2018-05-27T15:12:25.332Z,54.00
2018-05-27T15:17:18.713Z,57.80
2018-05-27T15:22:12.055Z,55.60
2018-05-27T15:27:05.438Z,55.50
2018-05-27T15:31:58.755Z,53.40
2018-05-27T15:36:52.076Z,55.00
2018-05-27T15:41:45.408Z,54.20
2018-05-27T15:46:38.718Z,54.00
2018-05-27T15:51:32.805Z,51.70
2018-05-27T15:56:26.131Z,51.70
2018-05-27T16:01:19.440Z,50.10
2018-05-27T16:06:12.796Z,53.70
2018-05-27T16:11:08.260Z,54.20
2018-05-27T16:16:02.326Z,55.00
2018-05-27T16:20:55.651Z,55.00
2018-05-27T16:25:48.957Z,56.20
2018-05-27T16:30:42.276Z,55.40
2018-05-27T16:35:36.336Z,55.20
2018-05-27T16:40:29.640Z,55.10
2018-05-27T16:45:23.748Z,56.10
2018-05-27T16:50:17.046Z,56.10
2018-05-27T16:55:10.344Z,54.10
2018-05-27T17:00:03.752Z,54.40
2018-05-27T17:04:57.096Z,54.50
2018-05-27T17:09:50.526Z,56.40
2018-05-27T17:14:43.858Z,55.20
2018-05-27T17:19:37.164Z,55.40
2018-05-27T17:24:30.437Z,57.20
2018-05-27T17:29:23.724Z,57.40
2018-05-27T17:34:17.044Z,57.30
2018-05-27T17:39:11.167Z,57.40
2018-05-27T17:44:04.543Z,57.30
2018-05-27T17:48:57.887Z,58.40
2018-05-27T17:53:51.972Z,60.10
2018-05-27T17:58:46.083Z,58.60
2018-05-27T18:03:41.161Z,61.10
2018-05-27T18:08:34.463Z,61.10
2018-05-27T18:13:28.552Z,61.50
2018-05-27T18:18:22.629Z,63.40
2018-05-27T18:23:16.050Z,63.40
2018-05-27T18:28:09.359Z,65.40
2018-05-27T18:33:02.689Z,66.80
2018-05-27T18:37:56.765Z,68.00
2018-05-27T18:42:50.066Z,68.00
2018-05-27T18:47:43.395Z,69.30
2018-05-27T18:52:36.711Z,69.10
2018-05-27T18:57:30.768Z,70.30
2018-05-27T19:02:24.092Z,70.30
2018-05-27T19:07:21.460Z,70.90
2018-05-27T19:12:15.542Z,72.90
2018-05-27T19:17:08.852Z,72.10
2018-05-27T19:22:02.174Z,73.30
2018-05-27T19:26:55.575Z,74.00
2018-05-27T19:31:54.651Z,74.70
2018-05-27T19:36:48.398Z,74.30
2018-05-27T19:41:42.469Z,75.60
2018-05-27T19:46:35.891Z,75.60
2018-05-27T19:51:29.207Z,76.30
2018-05-27T19:56:22.528Z,76.60
2018-05-27T20:01:15.824Z,77.00
2018-05-27T20:06:09.152Z,77.90
2018-05-27T20:11:02.591Z,77.40
2018-05-27T20:15:55.913Z,78.00
2018-05-27T20:20:49.249Z,78.30
2018-05-27T20:25:42.571Z,78.20
2018-05-27T20:30:35.874Z,78.60
2018-05-27T20:35:30.081Z,78.50
2018-05-27T20:40:23.379Z,79.30
2018-05-27T20:45:16.867Z,78.30
2018-05-27T20:50:11.420Z,79.40
2018-05-27T20:55:04.740Z,78.60
2018-05-27T20:59:58.079Z,79.60
2018-05-27T21:04:51.502Z,79.30
2018-05-27T21:09:44.837Z,79.20
2018-05-27T21:14:38.956Z,80.40
2018-05-27T21:19:32.281Z,80.40
2018-05-27T21:24:25.621Z,80.30
2018-05-27T21:29:18.951Z,80.80
2018-05-27T21:34:12.259Z,80.40
2018-05-27T21:39:06.475Z,81.30
2018-05-27T21:43:59.772Z,81.30
2018-05-27T21:48:53.075Z,81.10
2018-05-27T21:53:46.406Z,82.20
2018-05-27T21:58:40.581Z,80.90
2018-05-27T22:03:33.845Z,80.70
2018-05-27T22:08:27.919Z,81.00
2018-05-27T22:13:21.241Z,81.00
2018-05-27T22:18:14.620Z,82.10
2018-05-27T22:23:07.922Z,82.70
2018-05-27T22:28:01.321Z,82.40
2018-05-27T22:32:54.644Z,80.60
2018-05-27T22:37:48.731Z,81.50
2018-05-27T22:42:42.801Z,82.30
2018-05-27T22:47:36.111Z,82.30
2018-05-27T22:52:29.433Z,82.30
2018-05-27T22:57:22.748Z,82.20
2018-05-27T23:02:16.054Z,83.20
2018-05-27T23:07:10.134Z,84.30
2018-05-27T23:12:04.224Z,82.30
2018-05-27T23:16:58.321Z,83.40
2018-05-27T23:21:52.412Z,83.30
2018-05-27T23:26:46.491Z,83.00
2018-05-27T23:31:39.825Z,83.00
2018-05-27T23:36:33.159Z,84.30
2018-05-27T23:41:26.491Z,85.30
2018-05-27T23:46:20.536Z,85.70
2018-05-27T23:51:14.635Z,86.30
2018-05-27T23:56:08.701Z,86.20
